createdAt,value
2018-10-05T00:01:26.919Z,11.43
2018-10-05T00:03:56.347Z,10.33
2018-10-05T00:06:25.571Z,7.40
2018-10-05T00:08:54.775Z,10.67
2018-10-05T00:11:23.979Z,7.07
2018-10-05T00:13:53.321Z,12.13
2018-10-05T00:16:22.543Z,6.43
2018-10-05T00:18:51.760Z,11.13
2018-10-05T00:21:21.515Z,9.73
2018-10-05T00:23:50.731Z,13.53
2018-10-05T00:26:20.355Z,8.90
2018-10-05T00:28:49.722Z,11.03
2018-10-05T00:31:18.908Z,9.93
2018-10-05T00:33:48.115Z,7.80
2018-10-05T00:36:17.299Z,15.63
2018-10-05T00:38:46.484Z,7.83
2018-10-05T00:41:15.952Z,8.40
2018-10-05T00:43:45.239Z,7.60
2018-10-05T00:46:14.416Z,7.13
2018-10-05T00:48:44.063Z,13.77
2018-10-05T00:51:13.271Z,15.57
2018-10-05T00:53:42.457Z,7.43
2018-10-05T00:56:11.692Z,7.63
2018-10-05T00:58:40.879Z,7.33
2018-10-05T01:01:10.291Z,11.10
2018-10-05T01:03:39.520Z,10.63
2018-10-05T01:06:08.724Z,7.90
2018-10-05T01:08:37.920Z,13.23
2018-10-05T01:11:07.468Z,13.33
2018-10-05T01:13:36.716Z,9.80
2018-10-05T01:16:05.895Z,7.40
2018-10-05T01:18:35.131Z,7.30
2018-10-05T01:21:04.372Z,10.47
2018-10-05T01:23:33.787Z,13.03
2018-10-05T01:26:02.980Z,12.57
2018-10-05T01:28:32.192Z,16.23
2018-10-05T01:31:01.359Z,18.33
2018-10-05T01:33:30.859Z,12.37
2018-10-05T01:36:00.039Z,10.97
2018-10-05T01:38:29.247Z,10.00
2018-10-05T01:40:58.528Z,8.93
2018-10-05T01:43:27.827Z,13.57
2018-10-05T01:45:57.072Z,12.27
2018-10-05T01:48:26.470Z,14.50
2018-10-05T01:50:55.683Z,13.23
2018-10-05T01:53:24.937Z,8.60
2018-10-05T01:55:54.271Z,17.43
2018-10-05T01:58:23.470Z,9.70
2018-10-05T02:00:52.651Z,11.13
2018-10-05T02:03:21.972Z,11.57
2018-10-05T02:05:51.208Z,16.07
2018-10-05T02:08:20.432Z,9.63
2018-10-05T02:10:49.644Z,10.80
2018-10-05T02:13:18.815Z,11.93
2018-10-05T02:15:47.996Z,7.67
2018-10-05T02:18:17.762Z,8.13
2018-10-05T02:20:46.896Z,6.63
2018-10-05T02:23:16.087Z,10.20
2018-10-05T02:25:46.002Z,7.13
2018-10-05T02:28:15.181Z,12.20
2018-10-05T02:30:44.560Z,8.30
2018-10-05T02:33:13.824Z,9.50
2018-10-05T02:35:43.121Z,9.93
2018-10-05T02:38:12.315Z,13.33
2018-10-05T02:40:41.998Z,8.50
2018-10-05T02:43:11.179Z,10.70
2018-10-05T02:45:40.372Z,9.23
2018-10-05T02:48:09.559Z,8.50
2018-10-05T02:50:38.739Z,9.43
2018-10-05T02:53:07.935Z,9.57
2018-10-05T02:55:37.135Z,9.53
2018-10-05T02:58:06.599Z,8.43
2018-10-05T03:00:47.318Z,14.50
2018-10-05T03:03:16.492Z,6.37
2018-10-05T03:05:45.684Z,12.80
2018-10-05T03:08:14.913Z,8.63
2018-10-05T03:10:44.112Z,13.57
2018-10-05T03:13:13.299Z,9.90
2018-10-05T03:15:42.497Z,7.50
2018-10-05T03:18:11.766Z,8.80
2018-10-05T03:20:40.972Z,9.97
2018-10-05T03:23:10.257Z,12.10
2018-10-05T03:25:40.575Z,11.50
2018-10-05T03:28:10.148Z,18.83
2018-10-05T03:30:39.371Z,5.70
2018-10-05T03:33:08.719Z,8.47
2018-10-05T03:35:37.913Z,8.90
2018-10-05T03:38:07.578Z,12.90
2018-10-05T03:40:36.770Z,13.87
2018-10-05T03:43:06.244Z,13.27
2018-10-05T03:45:35.508Z,12.20
2018-10-05T03:48:04.707Z,13.77
2018-10-05T03:50:33.884Z,10.50
2018-10-05T03:53:03.494Z,13.30
2018-10-05T03:55:32.723Z,10.90
2018-10-05T03:58:01.892Z,15.17
2018-10-05T04:00:31.115Z,15.83
2018-10-05T04:03:00.328Z,17.87
2018-10-05T04:05:29.673Z,19.37
2018-10-05T04:07:59.507Z,23.67
2018-10-05T04:10:28.679Z,30.27
2018-10-05T04:12:57.919Z,24.37
2018-10-05T04:15:27.295Z,19.90
2018-10-05T04:17:56.781Z,16.07
2018-10-05T04:20:26.611Z,29.57
2018-10-05T04:22:56.924Z,20.17
2018-10-05T04:25:26.169Z,48.93
2018-10-05T04:27:55.357Z,42.60
2018-10-05T04:30:25.491Z,59.70
2018-10-05T04:32:54.664Z,43.73
2018-10-05T04:35:23.846Z,68.23
2018-10-05T04:37:53.368Z,52.87
2018-10-05T04:40:22.582Z,37.63
2018-10-05T04:42:51.797Z,51.00
2018-10-05T04:45:21.903Z,101.53
2018-10-05T04:47:51.088Z,53.67
2018-10-05T04:50:20.472Z,28.50
2018-10-05T04:52:49.944Z,27.10
2018-10-05T04:55:19.144Z,18.73
2018-10-05T04:57:48.648Z,26.33
2018-10-05T05:00:17.891Z,34.57
2018-10-05T05:02:47.495Z,35.47
2018-10-05T05:05:16.891Z,26.50
2018-10-05T05:07:46.126Z,24.70
2018-10-05T05:10:15.325Z,16.50
2018-10-05T05:12:44.504Z,30.37
2018-10-05T05:15:13.955Z,21.30
2018-10-05T05:17:43.364Z,91.37
2018-10-05T05:20:12.563Z,35.97
2018-10-05T05:22:41.779Z,46.77
2018-10-05T05:25:10.991Z,40.03
2018-10-05T05:27:40.288Z,56.13
2018-10-05T05:30:09.644Z,93.33
2018-10-05T05:32:39.202Z,48.30
2018-10-05T05:35:08.447Z,15.83
2018-10-05T05:37:39.382Z,18.53
2018-10-05T05:40:08.839Z,13.17
2018-10-05T05:42:37.988Z,25.67
2018-10-05T05:45:07.243Z,24.30
2018-10-05T05:47:36.436Z,13.90
2018-10-05T05:50:05.751Z,20.83
2018-10-05T05:52:35.185Z,15.53
2018-10-05T05:55:04.378Z,19.00
2018-10-05T05:57:33.620Z,16.50
2018-10-05T06:00:03.394Z,14.20
2018-10-05T06:02:32.588Z,16.53
2018-10-05T06:05:01.756Z,12.23
2018-10-05T06:07:30.988Z,13.70
2018-10-05T06:10:00.172Z,15.63
2018-10-05T06:12:29.370Z,9.87
2018-10-05T06:14:58.931Z,16.27
2018-10-05T06:17:28.132Z,18.10
2018-10-05T06:19:57.496Z,19.30
2018-10-05T06:22:27.482Z,18.27
2018-10-05T06:24:56.616Z,11.60
2018-10-05T06:27:26.008Z,19.20
2018-10-05T06:29:55.072Z,13.77
2018-10-05T06:32:24.267Z,13.90
2018-10-05T06:34:53.872Z,15.43
2018-10-05T06:37:26.568Z,17.03
2018-10-05T06:39:56.144Z,12.67
2018-10-05T06:42:25.408Z,18.10
2018-10-05T06:44:54.684Z,12.60
2018-10-05T06:47:24.023Z,14.03
2018-10-05T06:49:53.215Z,15.20
2018-10-05T06:52:22.680Z,13.07
2018-10-05T06:54:51.903Z,12.80
2018-10-05T06:57:21.102Z,10.97
2018-10-05T06:59:50.316Z,10.47
2018-10-05T07:02:19.512Z,21.37
2018-10-05T07:04:48.679Z,13.17
2018-10-05T07:07:18.383Z,13.20
2018-10-05T07:09:47.756Z,18.13
2018-10-05T07:12:17.267Z,18.63
2018-10-05T07:14:46.501Z,14.13
2018-10-05T07:17:15.691Z,18.10
2018-10-05T07:19:44.891Z,19.17
2018-10-05T07:22:14.177Z,18.43
2018-10-05T07:24:43.308Z,23.30
2018-10-05T07:27:12.580Z,16.30
2018-10-05T07:29:41.863Z,18.00
2018-10-05T07:32:11.057Z,18.67
2018-10-05T07:34:40.659Z,11.70
2018-10-05T07:37:10.467Z,18.80
2018-10-05T07:39:39.636Z,24.67
2018-10-05T07:42:08.804Z,17.40
2018-10-05T07:44:38.016Z,14.90
2018-10-05T07:47:07.216Z,15.53
2018-10-05T07:49:36.576Z,16.40
2018-10-05T07:52:06.238Z,17.53
2018-10-05T07:54:35.452Z,16.27
2018-10-05T07:57:04.652Z,15.87
2018-10-05T07:59:33.864Z,21.23
2018-10-05T08:02:03.067Z,27.10
2018-10-05T08:04:32.400Z,17.00
2018-10-05T08:07:01.638Z,31.03
2018-10-05T08:09:31.011Z,26.03
2018-10-05T08:12:00.279Z,25.53
2018-10-05T08:14:29.823Z,23.87
2018-10-05T08:16:59.016Z,24.57
2018-10-05T08:19:28.447Z,20.77
2018-10-05T08:21:57.683Z,26.30
2018-10-05T08:24:26.868Z,29.87
2018-10-05T08:26:56.122Z,23.60
2018-10-05T08:29:25.323Z,17.67
2018-10-05T08:31:54.515Z,19.60
2018-10-05T08:34:23.749Z,16.03
2018-10-05T08:36:53.628Z,16.47
2018-10-05T08:39:23.210Z,17.20
2018-10-05T08:41:52.421Z,23.17
2018-10-05T08:44:22.622Z,24.10
2018-10-05T08:46:51.848Z,23.27
2018-10-05T08:49:21.283Z,17.93
2018-10-05T08:51:50.677Z,30.83
2018-10-05T08:54:19.868Z,15.13
2018-10-05T08:56:49.106Z,22.57
2018-10-05T08:59:18.819Z,17.53
2018-10-05T09:01:48.024Z,20.03
2018-10-05T09:04:17.185Z,26.90
2018-10-05T09:06:46.444Z,19.83
2018-10-05T09:09:15.668Z,26.67
2018-10-05T09:11:44.919Z,16.60
2018-10-05T09:14:14.147Z,20.30
2018-10-05T09:16:43.623Z,28.77
2018-10-05T09:19:12.843Z,27.03
2018-10-05T09:21:42.479Z,16.60
2018-10-05T09:24:11.717Z,25.23
2018-10-05T09:26:41.167Z,20.63
2018-10-05T09:29:11.678Z,23.33
2018-10-05T09:31:42.188Z,24.90
2018-10-05T09:34:11.459Z,15.47
2018-10-05T09:36:41.149Z,23.23
2018-10-05T09:39:10.474Z,17.03
2018-10-05T09:41:39.703Z,21.77
2018-10-05T09:44:11.413Z,14.93
2018-10-05T09:46:41.685Z,23.77
2018-10-05T09:49:13.148Z,17.53
2018-10-05T09:51:42.493Z,17.90
2018-10-05T09:54:16.216Z,13.07
2018-10-05T09:56:45.748Z,19.87
2018-10-05T09:59:15.307Z,16.13
2018-10-05T10:01:50.360Z,16.33
2018-10-05T10:04:19.762Z,19.03
2018-10-05T10:06:50.232Z,20.13
2018-10-05T10:09:19.523Z,21.83
2018-10-05T10:11:48.799Z,12.63
2018-10-05T10:14:17.991Z,12.17
2018-10-05T10:16:47.198Z,12.47
2018-10-05T10:19:16.427Z,15.27
2018-10-05T10:21:45.710Z,17.27
2018-10-05T10:24:17.419Z,14.40
2018-10-05T10:26:46.779Z,14.93
2018-10-05T10:29:16.110Z,12.80
2018-10-05T10:31:45.344Z,15.17
2018-10-05T10:34:14.689Z,15.27
2018-10-05T10:36:44.045Z,17.27
2018-10-05T10:39:13.302Z,18.10
2018-10-05T10:41:43.163Z,14.70
2018-10-05T10:44:12.503Z,15.93
2018-10-05T10:46:43.011Z,10.90
2018-10-05T10:49:12.324Z,16.30
2018-10-05T10:51:41.979Z,11.30
2018-10-05T10:54:11.403Z,10.73
2018-10-05T10:56:41.292Z,9.20
2018-10-05T10:59:10.762Z,14.97
2018-10-05T11:01:42.257Z,12.57
2018-10-05T11:04:11.475Z,14.70
2018-10-05T11:06:40.655Z,10.00
2018-10-05T11:09:11.127Z,16.40
2018-10-05T11:11:40.334Z,12.83
2018-10-05T11:14:09.693Z,12.50
2018-10-05T11:16:38.883Z,17.10
2018-10-05T11:19:08.163Z,12.40
2018-10-05T11:21:37.359Z,12.03
2018-10-05T11:24:06.926Z,13.73
2018-10-05T11:26:36.099Z,17.00
2018-10-05T11:29:05.469Z,13.73
2018-10-05T11:31:34.751Z,13.43
2018-10-05T11:34:04.088Z,12.20
2018-10-05T11:36:33.288Z,11.77
2018-10-05T11:39:02.768Z,10.00
2018-10-05T11:41:32.275Z,17.50
2018-10-05T11:44:01.511Z,18.43
2018-10-05T11:46:30.919Z,10.23
2018-10-05T11:49:00.144Z,12.50
2018-10-05T11:51:29.532Z,11.60
2018-10-05T11:53:59.027Z,17.90
2018-10-05T11:56:28.232Z,9.50
2018-10-05T11:58:57.996Z,11.77
2018-10-05T12:01:27.292Z,10.23
2018-10-05T12:03:56.539Z,7.80
2018-10-05T12:06:25.744Z,8.23
2018-10-05T12:08:54.956Z,11.40
2018-10-05T12:11:24.148Z,10.30
2018-10-05T12:13:53.585Z,7.67
2018-10-05T12:16:23.119Z,11.87
2018-10-05T12:18:52.298Z,9.63
2018-10-05T12:21:21.529Z,11.40
2018-10-05T12:23:50.735Z,9.87
2018-10-05T12:26:19.917Z,18.83
2018-10-05T12:28:49.180Z,7.13
2018-10-05T12:31:18.408Z,9.80
2018-10-05T12:33:47.934Z,10.50
2018-10-05T12:36:17.256Z,7.90
2018-10-05T12:38:47.070Z,7.50
2018-10-05T12:41:16.823Z,15.23
2018-10-05T12:43:46.708Z,7.17
2018-10-05T12:46:15.967Z,6.80
2018-10-05T12:48:45.655Z,7.10
2018-10-05T12:51:14.840Z,7.60
2018-10-05T12:53:44.447Z,12.20
2018-10-05T12:56:14.447Z,7.77
2018-10-05T12:58:43.822Z,8.53
2018-10-05T13:01:13.557Z,4.73
2018-10-05T13:03:43.029Z,11.10
2018-10-05T13:06:12.463Z,7.53
2018-10-05T13:08:41.861Z,5.63
2018-10-05T13:11:12.464Z,4.70
2018-10-05T13:13:41.661Z,7.20
2018-10-05T13:16:10.927Z,6.80
2018-10-05T13:18:40.112Z,5.83
2018-10-05T13:21:09.425Z,10.13
2018-10-05T13:23:38.726Z,7.77
2018-10-05T13:26:08.804Z,9.83
2018-10-05T13:28:38.055Z,8.33
2018-10-05T13:31:07.691Z,6.70
2018-10-05T13:33:36.876Z,5.87
2018-10-05T13:36:06.237Z,9.40
2018-10-05T13:38:35.476Z,5.70
2018-10-05T13:41:04.764Z,5.37
2018-10-05T13:43:34.123Z,6.47
2018-10-05T13:46:03.703Z,7.80
2018-10-05T13:48:32.928Z,5.73
2018-10-05T13:51:02.427Z,5.60
2018-10-05T13:53:32.037Z,10.20
2018-10-05T13:56:01.232Z,5.67
2018-10-05T13:58:30.415Z,5.20
2018-10-05T14:00:59.967Z,4.67
2018-10-05T14:03:29.475Z,4.97
2018-10-05T14:05:58.755Z,11.23
2018-10-05T14:08:29.568Z,7.20
2018-10-05T14:10:58.882Z,9.40
2018-10-05T14:13:28.289Z,10.07
2018-10-05T14:15:58.787Z,4.97
2018-10-05T14:18:29.407Z,9.90
2018-10-05T14:20:58.917Z,5.77
2018-10-05T14:23:28.420Z,5.07
2018-10-05T14:25:57.794Z,6.00
2018-10-05T14:28:31.157Z,10.50
2018-10-05T14:31:01.599Z,3.70
2018-10-05T14:33:30.781Z,5.77
2018-10-05T14:36:02.291Z,7.77
2018-10-05T14:38:31.659Z,5.47
2018-10-05T14:41:00.852Z,6.23
2018-10-05T14:43:30.488Z,13.17
2018-10-05T14:45:59.897Z,5.63
2018-10-05T14:48:29.108Z,3.63
2018-10-05T14:50:58.735Z,8.40
2018-10-05T14:53:27.938Z,7.30
2018-10-05T14:55:57.372Z,5.00
2018-10-05T14:58:26.591Z,4.70
2018-10-05T15:00:55.909Z,4.90
2018-10-05T15:03:25.119Z,10.90
2018-10-05T15:05:54.645Z,8.30
2018-10-05T15:08:23.876Z,5.30
2018-10-05T15:10:53.070Z,3.73
2018-10-05T15:13:23.059Z,5.23
2018-10-05T15:15:52.413Z,4.53
2018-10-05T15:18:21.715Z,6.23
2018-10-05T15:20:51.078Z,11.00
2018-10-05T15:23:20.284Z,10.87
2018-10-05T15:25:49.667Z,9.97
2018-10-05T15:28:18.920Z,4.50
2018-10-05T15:30:48.241Z,14.97
2018-10-05T15:33:17.440Z,9.53
2018-10-05T15:35:47.078Z,7.33
2018-10-05T15:38:16.507Z,9.13
2018-10-05T15:40:45.690Z,5.50
2018-10-05T15:43:15.084Z,3.30
2018-10-05T15:45:44.681Z,5.03
2018-10-05T15:48:13.875Z,2.83
2018-10-05T15:50:43.309Z,5.37
2018-10-05T15:53:12.545Z,6.87
2018-10-05T15:55:44.271Z,3.70
2018-10-05T15:58:13.611Z,4.83
2018-10-05T16:00:42.907Z,6.77
2018-10-05T16:03:13.158Z,5.70
2018-10-05T16:05:42.431Z,6.63
2018-10-05T16:08:11.797Z,4.33
2018-10-05T16:10:41.067Z,3.43
2018-10-05T16:13:10.627Z,5.27
2018-10-05T16:15:41.275Z,3.47
2018-10-05T16:18:11.904Z,8.23
2018-10-05T16:20:41.051Z,3.67
2018-10-05T16:23:11.511Z,8.93
2018-10-05T16:25:40.839Z,8.07
2018-10-05T16:28:12.256Z,7.67
2018-10-05T16:30:41.555Z,3.67
2018-10-05T16:33:10.952Z,5.40
2018-10-05T16:35:40.116Z,5.83
2018-10-05T16:38:09.451Z,4.20
2018-10-05T16:40:39.040Z,15.30
2018-10-05T16:43:09.287Z,7.10
2018-10-05T16:45:38.626Z,7.13
2018-10-05T16:48:07.838Z,6.50
2018-10-05T16:50:37.021Z,6.17
2018-10-05T16:53:06.583Z,5.63
2018-10-05T16:55:35.791Z,12.33
2018-10-05T16:58:05.135Z,5.63
2018-10-05T17:00:34.456Z,8.23
2018-10-05T17:03:03.819Z,7.00
2018-10-05T17:05:37.090Z,11.10
2018-10-05T17:08:06.428Z,7.70
2018-10-05T17:10:35.773Z,15.73
2018-10-05T17:13:04.945Z,10.10
2018-10-05T17:15:34.163Z,16.23
2018-10-05T17:18:03.855Z,14.23
2018-10-05T17:20:34.048Z,8.40
2018-10-05T17:23:03.477Z,8.40
2018-10-05T17:25:32.961Z,7.10
2018-10-05T17:28:02.257Z,9.43
2018-10-05T17:30:31.487Z,6.73
2018-10-05T17:33:00.891Z,12.87
2018-10-05T17:35:31.412Z,10.17
2018-10-05T17:38:00.695Z,7.97
2018-10-05T17:40:29.817Z,11.10
2018-10-05T17:42:58.995Z,12.93
2018-10-05T17:45:30.307Z,16.87
2018-10-05T17:47:59.751Z,10.10
2018-10-05T17:50:29.108Z,14.07
2018-10-05T17:52:59.563Z,9.37
2018-10-05T17:55:28.922Z,10.00
2018-10-05T17:57:58.084Z,11.43
2018-10-05T18:00:31.582Z,11.20
2018-10-05T18:03:00.759Z,13.83
2018-10-05T18:05:31.066Z,12.83
2018-10-05T18:08:00.256Z,12.17
2018-10-05T18:10:29.757Z,15.07
2018-10-05T18:12:58.968Z,13.27
2018-10-05T18:15:29.485Z,10.47
2018-10-05T18:17:58.852Z,17.70
2018-10-05T18:20:28.195Z,16.60
2018-10-05T18:22:57.879Z,11.20
2018-10-05T18:25:27.090Z,11.43
2018-10-05T18:27:56.517Z,10.70
2018-10-05T18:30:25.768Z,13.03
2018-10-05T18:32:55.146Z,13.33
2018-10-05T18:35:24.411Z,15.67
2018-10-05T18:37:53.751Z,14.73
2018-10-05T18:40:23.005Z,11.63
2018-10-05T18:42:52.273Z,13.03
2018-10-05T18:45:21.869Z,11.70
2018-10-05T18:47:51.259Z,15.00
2018-10-05T18:50:20.624Z,20.40
2018-10-05T18:52:49.991Z,20.03
2018-10-05T18:55:19.240Z,10.60
2018-10-05T18:57:48.604Z,9.93
2018-10-05T19:00:18.077Z,9.73
2018-10-05T19:02:48.286Z,12.43
2018-10-05T19:05:17.656Z,16.20
2018-10-05T19:07:47.266Z,10.80
2018-10-05T19:10:16.523Z,9.17
2018-10-05T19:12:46.007Z,15.00
2018-10-05T19:15:15.441Z,13.27
2018-10-05T19:17:44.658Z,11.43
2018-10-05T19:20:13.851Z,10.67
2018-10-05T19:22:43.103Z,12.30
2018-10-05T19:25:12.611Z,8.53
2018-10-05T19:27:42.119Z,14.87
2018-10-05T19:30:11.574Z,11.30
2018-10-05T19:32:40.757Z,16.80
2018-10-05T19:35:11.024Z,10.13
2018-10-05T19:37:41.328Z,14.33
2018-10-05T19:40:10.516Z,12.73
2018-10-05T19:42:41.163Z,8.97
2018-10-05T19:45:10.420Z,13.23
2018-10-05T19:47:40.078Z,12.60
2018-10-05T19:50:09.264Z,11.20
2018-10-05T19:52:38.680Z,11.20
2018-10-05T19:55:07.939Z,13.13
2018-10-05T19:57:37.179Z,21.60
2018-10-05T20:00:06.408Z,9.77
2018-10-05T20:02:35.786Z,11.70
2018-10-05T20:05:05.056Z,10.50
2018-10-05T20:07:34.265Z,10.50
2018-10-05T20:10:03.893Z,12.90
2018-10-05T20:12:33.077Z,11.93
2018-10-05T20:15:02.362Z,11.60
2018-10-05T20:17:31.607Z,15.10
2018-10-05T20:20:00.802Z,8.87
2018-10-05T20:22:30.271Z,14.53
2018-10-05T20:24:59.527Z,12.77
2018-10-05T20:27:28.810Z,11.67
2018-10-05T20:29:58.135Z,12.23
2018-10-05T20:32:27.338Z,17.13
2018-10-05T20:34:56.715Z,14.20
2018-10-05T20:37:26.365Z,24.80
2018-10-05T20:39:55.635Z,10.40
2018-10-05T20:42:24.928Z,10.40
2018-10-05T20:44:54.483Z,8.83
2018-10-05T20:47:23.901Z,12.33
2018-10-05T20:49:53.089Z,15.80
2018-10-05T20:52:23.458Z,20.23
2018-10-05T20:54:52.639Z,12.20
2018-10-05T20:57:22.920Z,9.77
2018-10-05T20:59:52.500Z,11.93
2018-10-05T21:02:21.829Z,11.90
2018-10-05T21:04:51.107Z,9.23
2018-10-05T21:07:20.743Z,10.83
2018-10-05T21:09:50.507Z,14.27
2018-10-05T21:12:19.624Z,8.47
2018-10-05T21:14:48.928Z,15.20
2018-10-05T21:17:19.415Z,7.97
2018-10-05T21:19:48.640Z,12.07
2018-10-05T21:22:18.297Z,11.87
2018-10-05T21:24:47.467Z,12.73
2018-10-05T21:27:16.672Z,11.70
2018-10-05T21:29:45.975Z,11.13
2018-10-05T21:32:15.194Z,18.83
2018-10-05T21:34:44.532Z,13.53
2018-10-05T21:37:13.750Z,18.70
2018-10-05T21:39:44.083Z,12.60
2018-10-05T21:42:15.470Z,12.27
2018-10-05T21:44:44.889Z,10.87
2018-10-05T21:47:14.223Z,10.70
2018-10-05T21:49:43.783Z,13.60
2018-10-05T21:52:12.997Z,12.00
2018-10-05T21:54:44.501Z,16.10
2018-10-05T21:57:13.708Z,11.90
2018-10-05T21:59:43.168Z,15.33
2018-10-05T22:02:12.824Z,15.60
2018-10-05T22:04:42.008Z,11.33
2018-10-05T22:07:11.276Z,7.80
2018-10-05T22:09:40.495Z,17.63
2018-10-05T22:12:09.967Z,11.60
2018-10-05T22:14:39.187Z,10.70
2018-10-05T22:17:10.668Z,32.43
2018-10-05T22:19:39.901Z,61.70
2018-10-05T22:22:09.252Z,15.93
2018-10-05T22:24:38.543Z,13.93
2018-10-05T22:27:07.956Z,18.13
2018-10-05T22:29:37.188Z,14.10
2018-10-05T22:32:06.595Z,13.70
2018-10-05T22:34:35.792Z,20.63
2018-10-05T22:37:05.025Z,11.23
2018-10-05T22:39:34.235Z,11.50
2018-10-05T22:42:03.443Z,11.37
2018-10-05T22:44:32.619Z,19.97
2018-10-05T22:47:01.921Z,11.70
2018-10-05T22:49:31.083Z,12.57
2018-10-05T22:52:00.580Z,8.70
2018-10-05T22:54:29.880Z,10.93
2018-10-05T22:56:59.067Z,11.90
2018-10-05T22:59:28.279Z,12.47
2018-10-05T23:01:57.496Z,18.70
2018-10-05T23:04:26.691Z,12.10
2018-10-05T23:06:55.880Z,15.50
2018-10-05T23:09:25.308Z,10.37
2018-10-05T23:11:54.484Z,14.13
2018-10-05T23:14:23.696Z,16.50
2018-10-05T23:16:52.875Z,9.90
2018-10-05T23:19:22.062Z,11.87
2018-10-05T23:21:51.252Z,12.57
2018-10-05T23:24:20.455Z,11.70
2018-10-05T23:26:49.698Z,21.33
2018-10-05T23:29:18.902Z,20.53
2018-10-05T23:31:48.720Z,19.80
2018-10-05T23:34:17.965Z,36.07
2018-10-05T23:36:47.467Z,11.63
2018-10-05T23:39:16.796Z,14.20
2018-10-05T23:41:46.099Z,12.63
2018-10-05T23:44:15.340Z,11.40
2018-10-05T23:46:44.612Z,11.50
2018-10-05T23:49:13.860Z,14.43
2018-10-05T23:51:43.116Z,14.60
2018-10-05T23:54:12.908Z,11.63
2018-10-05T23:56:42.313Z,13.40
2018-10-05T23:59:11.548Z,13.30
